Kezdőlap
METAR-TAF:

METAR-TAF

Repülőterek :

Luanda, Angola

földrajzi szélesség: 08-51S, földrajzi hosszúság: 013-14E, magasság: 74 m

METAR: hiányzik

Idő: 22:47 (21:47 UTC)

Előrejelzés

A jelentés 4 órával és 47 perccel ezelõtt készült, 17:00 UTC
Az előrejelzés 21-én 21 óra UTC és 22-én 12 óra UTC között érvényes
Nyugati szél 6 kt
Látótávolság 10 km, vagy több
Kevés felhő 2200 lábon
21-én 23 óra UTC és 22-én 03 óra UTC között ideiglenes
Különbözõ irányokból fújó szél 3 kt
Látótávolság: 5000 m
Párásság
22-én 10 óra UTC és 22-én 12 óra UTC között fokozatosan kialakuló
Nyugati szél 8 kt
Látótávolság 10 km, vagy több
felhőtlen 1500 m magasságban, és nincs gomolyfelhõ

TAF: FNLU 211700Z 2121/2212 26006KT 9999 FEW022 TEMPO 2123/2203 VRB03KT 5000 BR BECMG 2210/2212 26008KT CAVOK

Meteorológiai megfigyelések és előrejelzések több, mint 4000 repülőtéren (METAR és TAF jelentéseket).

A térképen piros és sárga pontok jelzik az elérhető meteorológiai állomásokat.

Mozgassa az egeret a pont fölött, hogy megjelenjen az állomás neve.

Azután kattintson az időjárási megfigyelések és előrejelzések megtekintéséhez.

A térkép megváltoztatása: kattintson a fekete keresztel jelölt zöld gombra ráközelítéshez, a vonallal jelölt zöld gombra távolításhoz, vagy a zöld nyilakra a szomszédos térképek eléréséhez.


METAR-TAF: